createdAt,value
2019-02-11T00:00:50.539Z,15.27
2019-02-11T00:03:18.479Z,15.30
2019-02-11T00:05:46.387Z,15.17
2019-02-11T00:08:14.331Z,15.97
2019-02-11T00:10:42.584Z,14.73
2019-02-11T00:13:12.328Z,15.67
2019-02-11T00:15:40.341Z,15.73
2019-02-11T00:18:08.572Z,16.00
2019-02-11T00:20:36.714Z,13.47
2019-02-11T00:23:04.737Z,9.77
2019-02-11T00:25:32.780Z,8.53
2019-02-11T00:28:00.756Z,10.50
2019-02-11T00:30:29.147Z,15.33
2019-02-11T00:32:57.463Z,9.90
2019-02-11T00:35:25.727Z,13.43
2019-02-11T00:37:53.755Z,14.77
2019-02-11T00:40:21.895Z,12.23
2019-02-11T00:42:49.914Z,10.90
2019-02-11T00:45:17.937Z,11.07
2019-02-11T00:47:46.087Z,12.27
2019-02-11T00:50:14.103Z,13.00
2019-02-11T00:52:42.343Z,13.00
2019-02-11T00:55:12.846Z,12.33
2019-02-11T00:57:42.100Z,14.10
2019-02-11T01:00:11.995Z,12.03
2019-02-11T01:02:40.099Z,14.23
2019-02-11T01:05:08.019Z,11.30
2019-02-11T01:07:35.884Z,12.33
2019-02-11T01:10:05.016Z,15.87
2019-02-11T01:12:34.945Z,12.73
2019-02-11T01:15:03.069Z,12.63
2019-02-11T01:17:31.246Z,14.57
2019-02-11T01:19:59.331Z,15.47
2019-02-11T01:22:27.413Z,11.00
2019-02-11T01:24:55.734Z,13.50
2019-02-11T01:27:23.836Z,9.17
2019-02-11T01:29:51.703Z,12.93
2019-02-11T01:32:23.259Z,10.03
2019-02-11T01:34:51.384Z,7.37
2019-02-11T01:37:19.391Z,12.83
2019-02-11T01:39:47.532Z,9.73
2019-02-11T01:42:17.271Z,10.97
2019-02-11T01:44:45.244Z,12.77
2019-02-11T01:47:14.352Z,11.53
2019-02-11T01:49:42.556Z,9.47
2019-02-11T01:52:10.599Z,9.37
2019-02-11T01:54:38.759Z,8.70
2019-02-11T01:57:07.107Z,9.00
2019-02-11T01:59:35.166Z,9.37
2019-02-11T02:02:03.182Z,12.10
2019-02-11T02:04:31.315Z,9.30
2019-02-11T02:06:59.347Z,8.33
2019-02-11T02:09:27.481Z,10.47
2019-02-11T02:11:55.467Z,8.23
2019-02-11T02:14:25.924Z,9.43
2019-02-11T02:16:53.899Z,10.10
2019-02-11T02:19:21.866Z,9.57
2019-02-11T02:21:52.888Z,9.50
2019-02-11T02:24:21.008Z,9.50
2019-02-11T02:26:49.145Z,11.00
2019-02-11T02:29:17.178Z,10.07
2019-02-11T02:31:45.332Z,8.93
2019-02-11T02:34:13.372Z,8.80
2019-02-11T02:36:44.349Z,7.40
2019-02-11T02:39:12.592Z,7.90
2019-02-11T02:41:40.944Z,8.93
2019-02-11T02:44:08.992Z,8.77
2019-02-11T02:46:38.131Z,9.63
2019-02-11T02:49:06.096Z,7.20
2019-02-11T02:51:34.156Z,7.00
2019-02-11T02:54:02.187Z,9.10
2019-02-11T02:56:30.264Z,9.43
2019-02-11T02:58:58.282Z,8.83
2019-02-11T03:01:26.408Z,6.90
2019-02-11T03:03:54.444Z,8.17
2019-02-11T03:06:22.563Z,8.00
2019-02-11T03:08:50.590Z,6.33
2019-02-11T03:11:18.531Z,6.83
2019-02-11T03:13:46.762Z,6.10
2019-02-11T03:16:14.776Z,7.03
2019-02-11T03:19:02.377Z,6.67
2019-02-11T03:21:30.300Z,7.57
2019-02-11T03:23:58.407Z,8.00
2019-02-11T03:26:26.376Z,6.97
2019-02-11T03:28:54.337Z,9.50
2019-02-11T03:31:22.300Z,8.07
2019-02-11T03:33:52.637Z,6.80
2019-02-11T03:36:20.847Z,6.60
2019-02-11T03:38:48.995Z,7.87
2019-02-11T03:41:17.068Z,8.17
2019-02-11T03:43:45.636Z,6.70
2019-02-11T03:46:13.757Z,5.87
2019-02-11T03:48:41.954Z,6.50
2019-02-11T03:51:10.179Z,6.90
2019-02-11T03:53:38.331Z,7.53
2019-02-11T03:56:06.365Z,6.17
2019-02-11T03:58:34.415Z,6.10
2019-02-11T04:01:04.801Z,7.33
2019-02-11T04:03:34.781Z,8.13
2019-02-11T04:06:04.378Z,5.40
2019-02-11T04:08:32.499Z,5.20
2019-02-11T04:11:00.628Z,5.07
2019-02-11T04:13:29.843Z,6.67
2019-02-11T04:15:57.989Z,7.20
2019-02-11T04:18:30.959Z,7.03
2019-02-11T04:20:59.037Z,5.77
2019-02-11T04:23:30.029Z,7.33
2019-02-11T04:25:57.944Z,6.03
2019-02-11T04:28:25.977Z,6.33
2019-02-11T04:30:54.112Z,6.30
2019-02-11T04:33:22.154Z,5.67
2019-02-11T04:35:50.196Z,7.33
2019-02-11T04:38:18.386Z,6.13
2019-02-11T04:40:46.408Z,7.77
2019-02-11T04:43:14.435Z,7.57
2019-02-11T04:45:42.472Z,5.80
2019-02-11T04:48:10.646Z,6.60
2019-02-11T04:50:38.719Z,6.47
2019-02-11T04:53:11.721Z,5.90
2019-02-11T04:55:39.736Z,6.17
2019-02-11T04:58:07.758Z,7.13
2019-02-11T05:00:36.093Z,5.50
2019-02-11T05:03:04.230Z,8.27
2019-02-11T05:05:32.280Z,5.87
2019-02-11T05:08:00.339Z,7.03
2019-02-11T05:10:28.488Z,5.80
2019-02-11T05:12:56.534Z,5.47
2019-02-11T05:15:24.564Z,5.93
2019-02-11T05:17:52.696Z,5.37
2019-02-11T05:20:20.636Z,4.97
2019-02-11T05:22:48.825Z,5.30
2019-02-11T05:25:16.968Z,5.47
2019-02-11T05:27:45.225Z,5.03
2019-02-11T05:30:13.359Z,5.00
2019-02-11T05:32:41.457Z,4.80
2019-02-11T05:35:09.798Z,5.20
2019-02-11T05:37:37.836Z,5.07
2019-02-11T05:40:06.964Z,8.87
2019-02-11T05:42:34.874Z,4.77
2019-02-11T05:45:04.640Z,6.00
2019-02-11T05:47:32.583Z,4.27
2019-02-11T05:50:03.758Z,4.97
2019-02-11T05:52:31.793Z,5.13
2019-02-11T05:54:59.877Z,6.03
2019-02-11T05:57:28.093Z,5.43
2019-02-11T05:59:56.330Z,4.63
2019-02-11T06:02:24.389Z,5.10
2019-02-11T06:04:52.428Z,5.67
2019-02-11T06:07:20.520Z,5.07
2019-02-11T06:09:48.527Z,5.07
2019-02-11T06:12:16.675Z,4.40
2019-02-11T06:14:44.714Z,4.97
2019-02-11T06:17:12.862Z,4.53
2019-02-11T06:19:41.119Z,4.47
2019-02-11T06:22:11.618Z,5.40
2019-02-11T06:24:39.765Z,4.67
2019-02-11T06:27:07.892Z,4.27
2019-02-11T06:29:37.002Z,4.70
2019-02-11T06:32:04.994Z,5.43
2019-02-11T06:34:35.009Z,4.03
2019-02-11T06:37:03.171Z,4.23
2019-02-11T06:39:32.919Z,5.30
2019-02-11T06:42:01.155Z,5.37
2019-02-11T06:44:29.304Z,6.37
2019-02-11T06:46:57.668Z,4.43
2019-02-11T06:49:25.937Z,4.67
2019-02-11T06:51:54.073Z,7.20
2019-02-11T06:54:22.176Z,5.07
2019-02-11T06:56:50.187Z,6.50
2019-02-11T06:59:18.248Z,4.23
2019-02-11T07:01:47.382Z,4.70
2019-02-11T07:04:18.480Z,6.23
2019-02-11T07:06:48.090Z,6.17
2019-02-11T07:09:15.929Z,5.77
2019-02-11T07:11:44.188Z,6.23
2019-02-11T07:14:12.207Z,7.47
2019-02-11T07:16:40.287Z,6.40
2019-02-11T07:19:08.300Z,5.53
2019-02-11T07:21:36.495Z,5.57
2019-02-11T07:24:04.535Z,6.23
2019-02-11T07:26:32.595Z,7.53
2019-02-11T07:29:00.663Z,6.03
2019-02-11T07:31:28.868Z,5.97
2019-02-11T07:33:57.109Z,4.70
2019-02-11T07:36:25.180Z,6.40
2019-02-11T07:38:55.479Z,7.77
2019-02-11T07:41:32.211Z,6.67
2019-02-11T07:44:06.354Z,8.53
2019-02-11T07:46:42.700Z,6.27
2019-02-11T07:49:10.651Z,9.97
2019-02-11T07:51:42.255Z,8.00
2019-02-11T07:54:08.805Z,8.00
2019-02-11T07:56:36.855Z,5.20
2019-02-11T07:59:05.121Z,8.47
2019-02-11T08:01:33.259Z,10.10
2019-02-11T08:04:01.297Z,8.30
2019-02-11T08:06:32.120Z,5.87
2019-02-11T08:09:00.017Z,9.00
2019-02-11T08:11:28.463Z,5.20
2019-02-11T08:13:56.439Z,5.03
2019-02-11T08:16:24.451Z,7.20
2019-02-11T08:18:52.587Z,7.97
2019-02-11T08:21:22.300Z,8.17
2019-02-11T08:23:50.535Z,4.87
2019-02-11T08:26:18.644Z,6.23
2019-02-11T08:28:46.659Z,6.03
2019-02-11T08:31:14.775Z,6.37
2019-02-11T08:33:42.779Z,5.73
2019-02-11T08:36:10.919Z,7.80
2019-02-11T08:38:38.959Z,8.40
2019-02-11T08:41:06.903Z,3.80
2019-02-11T08:43:36.774Z,6.03
2019-02-11T08:46:04.787Z,6.23
2019-02-11T08:48:32.821Z,3.27
2019-02-11T08:51:02.575Z,5.13
2019-02-11T08:53:30.544Z,3.10
2019-02-11T08:55:58.767Z,6.10
2019-02-11T08:58:26.705Z,5.23
2019-02-11T09:00:55.728Z,4.40
2019-02-11T09:03:23.685Z,6.50
2019-02-11T09:05:52.761Z,4.33
2019-02-11T09:08:22.319Z,7.07
2019-02-11T09:10:50.625Z,3.00
2019-02-11T09:13:18.715Z,2.83
2019-02-11T09:15:54.080Z,3.87
2019-02-11T09:18:18.572Z,2.83
2019-02-11T09:20:47.680Z,4.47
2019-02-11T09:23:15.914Z,2.73
2019-02-11T09:25:43.931Z,2.10
2019-02-11T09:28:14.280Z,0.60
2019-02-11T09:30:42.513Z,1.60
2019-02-11T09:33:10.695Z,3.90
2019-02-11T09:35:38.660Z,2.63
2019-02-11T09:38:06.799Z,1.33
2019-02-11T09:40:34.845Z,1.53
2019-02-11T09:43:02.908Z,1.43
2019-02-11T09:45:33.683Z,0.40
2019-02-11T09:48:01.840Z,1.67
2019-02-11T09:50:33.004Z,1.63
2019-02-11T09:53:01.708Z,0.70
2019-02-11T09:55:31.190Z,1.70
2019-02-11T09:57:59.303Z,0.73
2019-02-11T10:00:30.935Z,0.73
2019-02-11T10:02:59.132Z,4.00
2019-02-11T10:05:29.452Z,0.30
2019-02-11T10:07:57.397Z,0.50
2019-02-11T10:10:25.499Z,0.67
2019-02-11T10:12:53.443Z,0.77
2019-02-11T10:15:21.671Z,2.17
2019-02-11T10:17:49.774Z,1.23
2019-02-11T10:20:17.787Z,0.50
2019-02-11T10:22:45.896Z,0.93
2019-02-11T10:25:19.512Z,0.83
2019-02-11T10:27:47.545Z,0.63
2019-02-11T10:30:18.731Z,0.80
2019-02-11T10:32:47.060Z,1.17
2019-02-11T10:35:15.449Z,1.80
2019-02-11T10:37:43.456Z,1.60
2019-02-11T10:40:11.972Z,1.17
2019-02-11T10:42:39.901Z,1.10
2019-02-11T10:45:09.440Z,0.70
2019-02-11T10:47:38.379Z,0.77
2019-02-11T10:50:07.106Z,2.77
2019-02-11T10:52:35.275Z,0.67
2019-02-11T10:55:06.782Z,1.70
2019-02-11T10:57:34.814Z,0.63
2019-02-11T11:00:06.505Z,0.50
2019-02-11T11:02:34.379Z,3.43
2019-02-11T11:05:02.512Z,0.97
2019-02-11T11:07:30.443Z,0.40
2019-02-11T11:09:59.568Z,2.20
2019-02-11T11:12:29.643Z,1.40
2019-02-11T11:14:57.671Z,0.60
2019-02-11T11:17:25.883Z,1.37
2019-02-11T11:19:54.958Z,0.83
2019-02-11T11:22:23.172Z,0.63
2019-02-11T11:24:51.228Z,0.40
2019-02-11T11:27:19.274Z,0.80
2019-02-11T11:29:50.399Z,0.47
2019-02-11T11:32:18.575Z,1.67
2019-02-11T11:34:46.599Z,1.03
2019-02-11T11:37:14.624Z,0.50
2019-02-11T11:39:43.740Z,0.40
2019-02-11T11:42:11.785Z,0.50
2019-02-11T11:44:40.100Z,1.30
2019-02-11T11:47:08.264Z,1.80
2019-02-11T11:49:36.552Z,1.10
2019-02-11T11:52:04.883Z,0.60
2019-02-11T11:54:33.022Z,0.80
2019-02-11T11:57:01.028Z,1.37
2019-02-11T11:59:29.513Z,0.90
2019-02-11T12:01:58.681Z,1.27
2019-02-11T12:04:26.651Z,0.70
2019-02-11T12:06:54.888Z,0.60
2019-02-11T12:09:22.993Z,1.00
2019-02-11T12:11:51.048Z,0.27
2019-02-11T12:14:22.038Z,0.50
2019-02-11T12:16:57.347Z,0.20
2019-02-11T12:19:20.559Z,0.70
2019-02-11T12:21:48.554Z,0.87
2019-02-11T12:24:16.614Z,0.80
2019-02-11T12:26:44.764Z,1.07
2019-02-11T12:29:12.859Z,0.50
2019-02-11T12:31:41.210Z,0.40
2019-02-11T12:34:09.287Z,0.80
2019-02-11T12:36:37.592Z,0.43
2019-02-11T12:39:05.661Z,1.60
2019-02-11T12:41:33.737Z,0.40
2019-02-11T12:44:01.802Z,0.30
2019-02-11T12:46:29.919Z,0.90
2019-02-11T12:49:01.468Z,1.43
2019-02-11T12:51:28.468Z,0.40
2019-02-11T12:53:56.532Z,0.67
2019-02-11T12:56:24.639Z,0.20
2019-02-11T12:58:54.887Z,0.90
2019-02-11T13:01:25.772Z,0.70
2019-02-11T13:03:53.882Z,1.43
2019-02-11T13:06:22.095Z,0.20
2019-02-11T13:08:50.222Z,0.50
2019-02-11T13:11:18.300Z,0.50
2019-02-11T13:13:47.716Z,0.57
2019-02-11T13:16:15.882Z,1.03
2019-02-11T13:18:44.223Z,0.40
2019-02-11T13:21:12.681Z,1.70
2019-02-11T13:23:40.778Z,1.50
2019-02-11T13:26:08.834Z,1.03
2019-02-11T13:28:36.953Z,1.03
2019-02-11T13:31:04.995Z,1.07
2019-02-11T13:33:33.105Z,1.63
2019-02-11T13:36:01.401Z,0.27
2019-02-11T13:38:29.634Z,1.30
2019-02-11T13:40:57.909Z,2.20
2019-02-11T13:43:26.002Z,0.70
2019-02-11T13:45:54.305Z,0.77
2019-02-11T13:48:22.379Z,3.07
2019-02-11T13:50:50.532Z,1.23
2019-02-11T13:53:21.803Z,0.43
2019-02-11T13:55:49.976Z,1.03
2019-02-11T13:58:18.114Z,1.17
2019-02-11T14:00:50.067Z,1.60
2019-02-11T14:03:20.116Z,1.63
2019-02-11T14:05:47.133Z,2.17
2019-02-11T14:08:15.206Z,2.03
2019-02-11T14:10:43.645Z,0.67
2019-02-11T14:13:12.999Z,0.30
2019-02-11T14:15:41.079Z,0.90
2019-02-11T14:18:14.327Z,0.70
2019-02-11T14:20:41.751Z,1.43
2019-02-11T14:23:10.233Z,0.70
2019-02-11T14:25:43.632Z,0.50
2019-02-11T14:28:08.123Z,1.17
2019-02-11T14:30:36.514Z,3.00
2019-02-11T14:33:05.197Z,1.17
2019-02-11T14:35:33.472Z,0.53
2019-02-11T14:38:02.602Z,1.40
2019-02-11T14:40:31.008Z,1.13
2019-02-11T14:42:59.293Z,1.53
2019-02-11T14:45:30.694Z,1.80
2019-02-11T14:47:58.755Z,1.90
2019-02-11T14:50:29.048Z,3.37
2019-02-11T14:52:57.054Z,2.13
2019-02-11T14:55:25.126Z,5.50
2019-02-11T14:57:53.214Z,4.03
2019-02-11T15:00:21.424Z,3.70
2019-02-11T15:02:49.631Z,3.97
2019-02-11T15:05:17.967Z,3.17
2019-02-11T15:07:46.140Z,2.57
2019-02-11T15:10:14.861Z,2.97
2019-02-11T15:12:43.138Z,1.40
2019-02-11T15:15:11.461Z,2.10
2019-02-11T15:17:39.902Z,2.00
2019-02-11T15:20:09.887Z,1.57
2019-02-11T15:22:38.194Z,2.60
2019-02-11T15:25:13.157Z,1.60
2019-02-11T15:27:41.197Z,0.73
2019-02-11T15:30:11.927Z,1.70
2019-02-11T15:32:40.010Z,1.27
2019-02-11T15:35:08.135Z,1.50
2019-02-11T15:37:36.243Z,0.63
2019-02-11T15:40:06.463Z,1.50
2019-02-11T15:42:34.436Z,2.97
2019-02-11T15:45:04.171Z,1.40
2019-02-11T15:47:32.187Z,3.47
2019-02-11T15:50:00.554Z,1.07
2019-02-11T15:52:29.966Z,1.50
2019-02-11T15:54:58.199Z,2.53
2019-02-11T15:57:26.602Z,2.63
2019-02-11T15:59:55.798Z,2.20
2019-02-11T16:02:24.695Z,1.67
2019-02-11T16:05:01.834Z,2.17
2019-02-11T16:07:23.485Z,1.40
2019-02-11T16:09:55.928Z,1.00
2019-02-11T16:12:24.222Z,2.17
2019-02-11T16:14:52.602Z,1.33
2019-02-11T16:17:20.678Z,2.10
2019-02-11T16:19:48.674Z,4.73
2019-02-11T16:22:16.754Z,3.20
2019-02-11T16:24:44.891Z,4.53
2019-02-11T16:27:13.173Z,3.80
2019-02-11T16:29:41.277Z,5.27
2019-02-11T16:32:12.177Z,4.83
2019-02-11T16:34:40.240Z,5.37
2019-02-11T16:37:09.642Z,4.20
2019-02-11T16:39:37.850Z,5.00
2019-02-11T16:42:05.962Z,5.47
2019-02-11T16:44:34.080Z,4.73
2019-02-11T16:47:02.758Z,5.30
2019-02-11T16:49:30.814Z,7.33
2019-02-11T16:51:58.842Z,4.53
2019-02-11T16:54:27.002Z,4.43
2019-02-11T16:56:54.985Z,4.93
2019-02-11T16:59:25.385Z,4.53
2019-02-11T17:01:56.449Z,4.77
2019-02-11T17:04:24.422Z,4.70
2019-02-11T17:06:53.736Z,4.40
2019-02-11T17:09:21.850Z,4.40
2019-02-11T17:11:49.830Z,4.47
2019-02-11T17:14:18.022Z,5.40
2019-02-11T17:16:46.174Z,4.10
2019-02-11T17:19:14.193Z,3.43
2019-02-11T17:21:42.242Z,4.37
2019-02-11T17:24:12.885Z,3.30
2019-02-11T17:26:41.078Z,3.10
2019-02-11T17:29:09.717Z,3.40
2019-02-11T17:31:39.383Z,3.57
2019-02-11T17:34:07.677Z,2.23
2019-02-11T17:36:35.982Z,3.60
2019-02-11T17:39:05.842Z,4.17
2019-02-11T17:41:35.606Z,6.43
2019-02-11T17:44:03.714Z,3.53
2019-02-11T17:46:31.946Z,3.97
2019-02-11T17:49:00.170Z,3.37
2019-02-11T17:51:29.916Z,2.60
2019-02-11T17:53:59.138Z,3.03
2019-02-11T17:56:27.590Z,3.77
2019-02-11T17:59:00.402Z,2.73
2019-02-11T18:01:28.803Z,3.77
2019-02-11T18:03:58.076Z,2.83
2019-02-11T18:06:26.438Z,3.70
2019-02-11T18:08:54.606Z,2.57
2019-02-11T18:11:23.011Z,2.47
2019-02-11T18:13:51.358Z,3.20
2019-02-11T18:16:19.798Z,3.47
2019-02-11T18:18:48.168Z,3.03
2019-02-11T18:21:18.366Z,4.30
2019-02-11T18:23:46.466Z,3.90
2019-02-11T18:26:14.739Z,4.83
2019-02-11T18:28:47.278Z,3.10
2019-02-11T18:31:13.302Z,3.90
2019-02-11T18:33:41.572Z,3.27
2019-02-11T18:36:09.955Z,3.30
2019-02-11T18:38:38.308Z,3.27
2019-02-11T18:41:06.647Z,4.70
2019-02-11T18:43:34.895Z,3.43
2019-02-11T18:46:03.089Z,4.60
2019-02-11T18:48:31.286Z,3.87
2019-02-11T18:50:59.694Z,3.97
2019-02-11T18:53:28.287Z,3.73
2019-02-11T18:55:56.458Z,4.00
2019-02-11T18:58:24.486Z,5.90
2019-02-11T19:00:52.651Z,2.97
2019-02-11T19:03:20.845Z,5.07
2019-02-11T19:05:48.854Z,3.13
2019-02-11T19:08:16.915Z,5.37
2019-02-11T19:10:44.899Z,4.13
2019-02-11T19:13:13.047Z,4.97
2019-02-11T19:15:41.038Z,3.20
2019-02-11T19:18:09.069Z,2.67
2019-02-11T19:20:38.910Z,5.37
2019-02-11T19:23:09.258Z,6.37
2019-02-11T19:25:37.356Z,3.60
2019-02-11T19:28:05.819Z,4.60
2019-02-11T19:30:33.959Z,5.00
2019-02-11T19:33:02.109Z,3.60
2019-02-11T19:35:30.632Z,5.57
2019-02-11T19:37:58.634Z,2.57
2019-02-11T19:40:26.957Z,2.77
2019-02-11T19:42:55.511Z,3.17
2019-02-11T19:45:23.739Z,2.77
2019-02-11T19:47:51.792Z,2.23
2019-02-11T19:50:19.930Z,1.80
2019-02-11T19:52:48.056Z,1.70
2019-02-11T19:55:16.090Z,1.97
2019-02-11T19:57:44.090Z,2.03
2019-02-11T20:00:18.390Z,1.40
2019-02-11T20:02:46.987Z,1.23
2019-02-11T20:05:14.929Z,2.07
2019-02-11T20:07:43.219Z,2.70
2019-02-11T20:10:11.859Z,2.00
2019-02-11T20:12:40.183Z,2.47
2019-02-11T20:15:10.300Z,1.50
2019-02-11T20:17:38.463Z,3.70
2019-02-11T20:20:13.578Z,2.17
2019-02-11T20:22:45.178Z,3.20
2019-02-11T20:25:13.218Z,4.27
2019-02-11T20:27:41.770Z,7.00
2019-02-11T20:30:12.136Z,5.37
2019-02-11T20:32:40.129Z,5.13
2019-02-11T20:35:08.315Z,2.50
2019-02-11T20:37:37.810Z,5.57
2019-02-11T20:40:07.147Z,3.20
2019-02-11T20:42:37.214Z,1.93
2019-02-11T20:45:10.998Z,2.23
2019-02-11T20:47:42.171Z,1.73
2019-02-11T20:50:12.149Z,0.90
2019-02-11T20:52:40.355Z,0.50
2019-02-11T20:55:09.804Z,2.33
2019-02-11T20:57:38.022Z,3.60
2019-02-11T21:00:10.225Z,1.33
2019-02-11T21:02:38.239Z,0.97
2019-02-11T21:05:08.461Z,0.70
2019-02-11T21:07:36.522Z,1.30
2019-02-11T21:10:05.675Z,1.60
2019-02-11T21:12:34.062Z,2.10
2019-02-11T21:15:02.183Z,0.87
2019-02-11T21:17:30.654Z,1.40
2019-02-11T21:19:58.870Z,1.67
2019-02-11T21:22:26.971Z,2.70
2019-02-11T21:24:55.319Z,3.37
2019-02-11T21:27:28.842Z,0.80
2019-02-11T21:29:57.060Z,1.10
2019-02-11T21:32:25.170Z,1.17
2019-02-11T21:34:54.291Z,2.03
2019-02-11T21:37:24.086Z,1.10
2019-02-11T21:39:52.157Z,2.07
2019-02-11T21:42:20.158Z,1.10
2019-02-11T21:44:48.462Z,0.83
2019-02-11T21:47:16.635Z,2.33
2019-02-11T21:49:44.755Z,2.17
2019-02-11T21:52:12.877Z,0.97
2019-02-11T21:54:41.149Z,1.30
2019-02-11T21:57:09.428Z,2.83
2019-02-11T21:59:37.563Z,2.50
2019-02-11T22:02:07.111Z,1.90
2019-02-11T22:04:38.230Z,2.00
2019-02-11T22:07:06.761Z,1.53
2019-02-11T22:09:35.082Z,1.53
2019-02-11T22:12:05.230Z,1.47
2019-02-11T22:14:34.470Z,1.27
2019-02-11T22:17:04.342Z,3.13
2019-02-11T22:19:32.590Z,1.27
2019-02-11T22:22:00.609Z,1.07
2019-02-11T22:24:29.130Z,1.23
2019-02-11T22:26:57.350Z,0.43
2019-02-11T22:29:25.950Z,1.23
2019-02-11T22:31:54.125Z,1.93
2019-02-11T22:34:22.517Z,1.13
2019-02-11T22:36:50.856Z,2.93
2019-02-11T22:39:21.566Z,2.77
2019-02-11T22:41:49.767Z,0.87
2019-02-11T22:44:17.874Z,1.23
2019-02-11T22:46:46.202Z,1.30
2019-02-11T22:49:16.568Z,1.30
2019-02-11T22:51:47.684Z,2.00
2019-02-11T22:54:15.778Z,4.37
2019-02-11T22:56:43.724Z,3.93
2019-02-11T22:59:11.991Z,1.17
2019-02-11T23:01:40.141Z,1.63
2019-02-11T23:04:08.164Z,0.93
2019-02-11T23:06:36.263Z,1.20
2019-02-11T23:09:08.415Z,1.07
2019-02-11T23:11:36.520Z,2.53
2019-02-11T23:14:04.604Z,2.30
2019-02-11T23:16:32.855Z,1.47
2019-02-11T23:19:00.881Z,1.27
2019-02-11T23:21:30.019Z,2.13
2019-02-11T23:23:58.249Z,0.83
2019-02-11T23:26:26.324Z,1.37
2019-02-11T23:28:54.361Z,0.67
2019-02-11T23:31:22.424Z,2.20
2019-02-11T23:33:52.393Z,1.60
2019-02-11T23:36:20.492Z,1.73
2019-02-11T23:38:51.604Z,3.10
2019-02-11T23:41:21.155Z,0.90
2019-02-11T23:43:49.288Z,2.53
2019-02-11T23:46:17.356Z,1.70
2019-02-11T23:48:45.529Z,0.83
2019-02-11T23:51:13.409Z,2.63
2019-02-11T23:53:41.593Z,1.47
2019-02-11T23:56:09.615Z,1.97
2019-02-11T23:58:38.821Z,3.07
